Time,TemperatureF,DewpointF,PressureIn,WindDirection,WindDirectionDegrees,WindSpeedMPH,WindSpeedGustMPH,Humidity,HourlyPrecipIn,Conditions,Clouds,dailyrainin,SolarRadiationWatts/m^2,SoftwareType,DateUTC
2013-04-29 00:01:00,47.0,45.0,-100.00,NW,312,2.0,5.0,92,0.00,,,0.00,0.000000,,2013-04-29 07:01:00,
2013-04-29 00:32:00,47.0,44.0,-100.00,NW,324,2.0,4.0,89,0.00,,,0.00,0.000000,,2013-04-29 07:32:00,
2013-04-29 00:42:00,47.0,44.0,-100.00,NW,324,2.0,4.0,89,0.00,,,0.00,0.000000,,2013-04-29 07:42:00,
2013-04-29 00:52:00,47.0,44.0,-100.00,NW,324,2.0,4.0,89,0.00,,,0.00,0.000000,,2013-04-29 07:52:00,
2013-04-29 01:02:00,47.0,44.0,-100.00,NW,324,2.0,4.0,89,0.00,,,0.00,0.000000,,2013-04-29 08:02:00,
2013-04-29 01:32:00,47.0,46.0,-100.00,NNW,330,3.0,9.0,95,0.00,,,0.00,0.000000,,2013-04-29 08:32:00,
2013-04-29 01:42:00,47.0,46.0,-100.00,NNW,330,3.0,9.0,95,0.00,,,0.00,0.000000,,2013-04-29 08:42:00,
2013-04-29 01:52:00,47.0,46.0,-100.00,NNW,330,3.0,9.0,95,0.00,,,0.00,0.000000,,2013-04-29 08:52:00,
2013-04-29 02:01:00,47.0,46.0,-100.00,NNW,330,3.0,9.0,95,0.00,,,0.00,0.000000,,2013-04-29 09:01:00,
2013-04-29 02:33:00,47.0,46.0,-100.00,NNW,327,3.0,8.0,96,0.00,,,0.00,0.000000,,2013-04-29 09:33:00,
2013-04-29 02:42:00,47.0,46.0,-100.00,NNW,327,3.0,8.0,96,0.00,,,0.00,0.000000,,2013-04-29 09:42:00,
2013-04-29 02:53:00,47.0,46.0,-100.00,NNW,327,3.0,8.0,96,0.00,,,0.00,0.000000,,2013-04-29 09:53:00,
2013-04-29 03:02:00,47.0,46.0,-100.00,NNW,327,3.0,8.0,96,0.00,,,0.00,0.000000,,2013-04-29 10:02:00,
2013-04-29 03:32:00,47.0,46.0,-100.00,NW,313,2.0,9.0,98,0.00,,,0.00,0.000000,,2013-04-29 10:32:00,
2013-04-29 03:42:00,47.0,46.0,-100.00,NW,313,2.0,9.0,98,0.00,,,0.00,0.000000,,2013-04-29 10:42:00,
2013-04-29 03:52:00,47.0,46.0,-100.00,NW,313,2.0,9.0,98,0.00,,,0.00,0.000000,,2013-04-29 10:52:00,
2013-04-29 04:02:00,47.0,46.0,-100.00,NW,313,2.0,9.0,98,0.00,,,0.00,0.000000,,2013-04-29 11:02:00,
2013-04-29 04:32:00,47.0,46.0,-100.00,NW,309,2.0,9.0,98,0.00,,,0.00,0.000000,,2013-04-29 11:32:00,
2013-04-29 04:42:00,47.0,46.0,-100.00,NW,309,2.0,9.0,98,0.00,,,0.00,0.000000,,2013-04-29 11:42:00,
2013-04-29 04:52:00,47.0,46.0,-100.00,NW,309,2.0,9.0,98,0.00,,,0.00,0.000000,,2013-04-29 11:52:00,
2013-04-29 05:01:00,47.0,46.0,-100.00,NW,309,2.0,9.0,98,0.00,,,0.00,0.000000,,2013-04-29 12:01:00,
2013-04-29 06:32:00,47.0,46.0,-100.00,WNW,299,5.0,10.0,98,-99.99,,,0.05,0.000000,,2013-04-29 13:32:00,
2013-04-29 06:42:00,47.0,46.0,-100.00,WNW,299,5.0,10.0,98,-99.99,,,0.05,0.000000,,2013-04-29 13:42:00,
2013-04-29 06:52:00,47.0,46.0,-100.00,WNW,299,5.0,10.0,98,-99.99,,,0.05,0.000000,,2013-04-29 13:52:00,
2013-04-29 07:01:00,47.0,46.0,-100.00,WNW,299,5.0,10.0,98,-99.99,,,0.05,0.000000,,2013-04-29 14:01:00,
2013-04-29 07:32:00,47.0,46.0,-100.00,NNW,335,4.0,8.0,98,0.06,,,0.11,4.000000,,2013-04-29 14:32:00,
2013-04-29 07:42:00,47.0,46.0,-100.00,NNW,335,4.0,8.0,98,0.06,,,0.11,4.000000,,2013-04-29 14:42:00,
2013-04-29 07:52:00,47.0,46.0,-100.00,NNW,335,4.0,8.0,98,0.06,,,0.11,4.000000,,2013-04-29 14:52:00,
2013-04-29 08:01:00,47.0,46.0,-100.00,NNW,335,4.0,8.0,98,0.06,,,0.11,4.000000,,2013-04-29 15:01:00,
2013-04-29 08:33:00,47.0,46.0,-100.00,NNW,343,5.0,12.0,98,0.05,,,0.16,33.000000,,2013-04-29 15:33:00,
2013-04-29 08:43:00,47.0,46.0,-100.00,NNW,343,5.0,12.0,98,0.05,,,0.16,33.000000,,2013-04-29 15:43:00,
2013-04-29 08:53:00,47.0,46.0,-100.00,NNW,343,5.0,12.0,98,0.05,,,0.16,33.000000,,2013-04-29 15:53:00,
2013-04-29 09:02:00,47.0,46.0,-100.00,NNW,343,5.0,12.0,98,0.05,,,0.16,33.000000,,2013-04-29 16:02:00,
2013-04-29 09:33:00,46.0,45.0,-100.00,NNW,341,5.0,12.0,98,0.00,,,0.16,68.000000,,2013-04-29 16:33:00,
2013-04-29 09:42:00,46.0,45.0,-100.00,NNW,341,5.0,12.0,98,0.00,,,0.16,68.000000,,2013-04-29 16:42:00,
2013-04-29 09:52:00,46.0,45.0,-100.00,NNW,341,5.0,12.0,98,0.00,,,0.16,68.000000,,2013-04-29 16:52:00,
2013-04-29 10:02:00,46.0,45.0,-100.00,NNW,341,5.0,12.0,98,0.00,,,0.16,68.000000,,2013-04-29 17:02:00,
2013-04-29 10:32:00,47.0,46.0,-100.00,NNW,347,3.0,10.0,98,0.00,,,0.16,180.000000,,2013-04-29 17:32:00,
2013-04-29 10:42:00,47.0,46.0,-100.00,NNW,347,3.0,10.0,98,0.00,,,0.16,180.000000,,2013-04-29 17:42:00,
2013-04-29 10:52:00,47.0,46.0,-100.00,NNW,347,3.0,10.0,98,0.00,,,0.16,180.000000,,2013-04-29 17:52:00,
2013-04-29 11:01:00,47.0,46.0,-100.00,NNW,347,3.0,10.0,98,0.00,,,0.16,180.000000,,2013-04-29 18:01:00,
2013-04-29 13:32:00,51.0,44.0,-100.00,North,5,5.0,13.0,78,-99.99,,,0.19,692.000000,,2013-04-29 20:32:00,
2013-04-29 13:42:00,51.0,44.0,-100.00,North,5,5.0,13.0,78,-99.99,,,0.19,692.000000,,2013-04-29 20:42:00,
2013-04-29 13:52:00,51.0,44.0,-100.00,North,5,5.0,13.0,78,-99.99,,,0.19,692.000000,,2013-04-29 20:52:00,
2013-04-29 14:01:00,51.0,44.0,-100.00,North,5,5.0,13.0,78,-99.99,,,0.19,692.000000,,2013-04-29 21:01:00,
2013-04-29 15:32:00,56.0,38.0,-100.00,North,3,4.0,12.0,50,-99.99,,,0.19,868.000000,,2013-04-29 22:32:00,
2013-04-29 15:42:00,56.0,38.0,-100.00,North,3,4.0,12.0,50,-99.99,,,0.19,868.000000,,2013-04-29 22:42:00,
2013-04-29 15:52:00,56.0,38.0,-100.00,North,3,4.0,12.0,50,-99.99,,,0.19,868.000000,,2013-04-29 22:52:00,
2013-04-29 16:02:00,56.0,38.0,-100.00,North,3,4.0,12.0,50,-99.99,,,0.19,868.000000,,2013-04-29 23:02:00,
2013-04-29 16:32:00,53.0,37.0,-100.00,North,359,6.0,12.0,55,0.00,,,0.19,476.000000,,2013-04-29 23:32:00,
2013-04-29 16:42:00,53.0,37.0,-100.00,North,359,6.0,12.0,55,0.00,,,0.19,476.000000,,2013-04-29 23:42:00,
2013-04-29 16:52:00,53.0,37.0,-100.00,North,359,6.0,12.0,55,0.00,,,0.19,476.000000,,2013-04-29 23:52:00,
2013-04-29 17:01:00,53.0,37.0,-100.00,North,359,6.0,12.0,55,0.00,,,0.19,476.000000,,2013-04-30 00:01:00,